createdAt,value
2023-05-05T00:01:35.640Z,13.60
2023-05-05T00:04:02.546Z,13.70
2023-05-05T00:06:29.406Z,13.80
2023-05-05T00:08:56.683Z,13.90
2023-05-05T00:11:24.417Z,13.90
2023-05-05T00:13:51.689Z,14.00
2023-05-05T00:16:18.667Z,14.10
2023-05-05T00:18:45.511Z,14.30
2023-05-05T00:21:12.392Z,14.60
2023-05-05T00:23:39.341Z,14.90
2023-05-05T00:26:06.823Z,15.30
2023-05-05T00:28:33.717Z,15.40
2023-05-05T00:31:00.722Z,15.50
2023-05-05T00:33:27.893Z,15.40
2023-05-05T00:35:54.824Z,15.50
2023-05-05T00:38:24.990Z,15.50
2023-05-05T00:40:52.116Z,15.40
2023-05-05T00:43:19.231Z,15.40
2023-05-05T00:45:48.224Z,15.40
2023-05-05T00:48:17.083Z,15.40
2023-05-05T00:50:45.171Z,15.40
2023-05-05T00:53:12.433Z,15.30
2023-05-05T00:55:39.375Z,15.20
2023-05-05T00:58:06.353Z,15.30
2023-05-05T01:00:33.461Z,15.20
2023-05-05T01:03:00.701Z,15.10
2023-05-05T01:05:33.295Z,14.90
2023-05-05T01:08:06.417Z,14.90
2023-05-05T01:10:33.391Z,14.80
2023-05-05T01:13:16.995Z,14.70
2023-05-05T01:15:50.488Z,14.70
2023-05-05T01:21:23.904Z,14.60
2023-05-05T01:24:29.762Z,14.60
2023-05-05T01:27:27.416Z,14.60
2023-05-05T01:30:31.918Z,14.70
2023-05-05T01:33:04.164Z,14.90
2023-05-05T01:35:36.770Z,15.00
2023-05-05T01:38:09.666Z,15.00
2023-05-05T01:40:47.176Z,15.00
2023-05-05T01:43:15.984Z,15.00
2023-05-05T01:45:45.069Z,14.90
2023-05-05T01:48:12.809Z,14.90
2023-05-05T01:50:42.129Z,15.00
2023-05-05T01:53:10.268Z,15.00
2023-05-05T01:55:39.635Z,15.00
2023-05-05T01:58:07.923Z,15.00
2023-05-05T02:00:35.641Z,14.90
2023-05-05T02:03:05.246Z,14.80
2023-05-05T02:05:34.515Z,14.80
2023-05-05T02:08:03.673Z,14.70
2023-05-05T02:10:31.213Z,14.50
2023-05-05T02:13:05.167Z,14.40
2023-05-05T02:15:33.865Z,14.40
2023-05-05T02:18:02.206Z,14.30
2023-05-05T02:20:31.789Z,14.20
2023-05-05T02:22:59.282Z,14.10
2023-05-05T02:25:42.171Z,14.00
2023-05-05T02:28:18.564Z,13.80
2023-05-05T02:30:51.655Z,13.60
2023-05-05T02:33:21.585Z,13.50
2023-05-05T02:35:52.204Z,13.30
2023-05-05T02:38:23.865Z,13.20
2023-05-05T02:40:52.328Z,13.20
2023-05-05T02:43:23.322Z,13.30
2023-05-05T02:45:52.346Z,13.40
2023-05-05T02:48:19.428Z,13.50
2023-05-05T02:50:46.389Z,13.50
2023-05-05T02:53:13.458Z,13.40
2023-05-05T02:55:48.659Z,13.40
2023-05-05T02:58:34.834Z,13.40
2023-05-05T03:01:22.885Z,13.40
2023-05-05T03:04:03.932Z,13.40
2023-05-05T03:06:35.795Z,13.20
2023-05-05T03:09:23.400Z,13.00
2023-05-05T03:11:57.160Z,12.80
2023-05-05T03:14:25.625Z,12.70
2023-05-05T03:16:54.910Z,12.50
2023-05-05T03:19:22.552Z,12.40
2023-05-05T03:21:49.920Z,12.30
2023-05-05T03:24:18.229Z,12.20
2023-05-05T03:26:46.741Z,12.30
2023-05-05T03:29:14.776Z,12.40
2023-05-05T03:31:42.468Z,12.50
2023-05-05T03:34:09.596Z,12.50
2023-05-05T03:36:36.543Z,12.50
2023-05-05T03:39:03.802Z,12.50
2023-05-05T03:41:30.734Z,12.60
2023-05-05T03:43:57.664Z,12.60
2023-05-05T03:46:24.578Z,12.60
2023-05-05T03:48:51.805Z,12.50
2023-05-05T03:51:18.688Z,12.50
2023-05-05T03:53:45.666Z,12.50
2023-05-05T03:56:12.606Z,12.50
2023-05-05T03:58:39.550Z,12.40
2023-05-05T04:01:06.468Z,12.30
2023-05-05T04:03:33.391Z,12.20
2023-05-05T04:06:00.610Z,12.10
2023-05-05T04:08:27.442Z,12.00
2023-05-05T04:10:54.330Z,12.00
2023-05-05T04:13:21.257Z,12.00
2023-05-05T04:15:48.170Z,11.90
2023-05-05T04:18:15.097Z,11.90
2023-05-05T04:20:42.054Z,11.90
2023-05-05T04:23:08.906Z,12.00
2023-05-05T04:25:36.090Z,12.10
2023-05-05T04:28:03.114Z,12.20
2023-05-05T04:30:30.710Z,12.30
2023-05-05T04:32:57.604Z,12.40
2023-05-05T04:35:24.474Z,12.50
2023-05-05T04:37:51.377Z,12.60
2023-05-05T04:40:18.304Z,12.60
2023-05-05T04:42:45.173Z,12.70
2023-05-05T04:45:13.231Z,12.80
2023-05-05T04:47:40.910Z,12.90
2023-05-05T04:50:09.203Z,13.00
2023-05-05T04:52:36.236Z,13.10
2023-05-05T04:55:03.197Z,13.10
2023-05-05T04:57:30.841Z,13.20
2023-05-05T04:59:59.616Z,13.30
2023-05-05T05:02:27.276Z,13.40
2023-05-05T05:04:54.122Z,13.50
2023-05-05T05:07:21.455Z,13.60
2023-05-05T05:09:48.323Z,13.80
2023-05-05T05:12:15.284Z,14.10
2023-05-05T05:14:42.188Z,14.50
2023-05-05T05:17:09.035Z,14.70
2023-05-05T05:19:36.039Z,15.10
2023-05-05T05:22:02.954Z,15.40
2023-05-05T05:24:30.146Z,15.90
2023-05-05T05:26:57.006Z,16.50
2023-05-05T05:29:23.859Z,17.40
2023-05-05T05:31:50.725Z,17.80
2023-05-05T05:34:17.589Z,18.30
2023-05-05T05:36:44.484Z,18.80
2023-05-05T05:39:11.388Z,18.50
2023-05-05T05:41:38.269Z,18.90
2023-05-05T05:44:05.593Z,20.10
2023-05-05T05:46:32.531Z,20.60
2023-05-05T05:48:59.385Z,22.20
2023-05-05T05:51:29.073Z,22.60
2023-05-05T05:53:58.149Z,23.60
2023-05-05T05:56:25.872Z,24.60
2023-05-05T05:58:52.877Z,25.80
2023-05-05T06:01:20.069Z,26.20
2023-05-05T06:03:47.011Z,26.00
2023-05-05T06:06:14.037Z,25.10
2023-05-05T06:08:40.982Z,25.80
2023-05-05T06:11:08.109Z,26.00
2023-05-05T06:13:35.025Z,26.10
2023-05-05T06:16:02.094Z,25.30
2023-05-05T06:21:08.751Z,26.60
2023-05-05T06:23:35.706Z,26.20
2023-05-05T06:26:02.518Z,26.00
2023-05-05T06:28:29.400Z,25.60
2023-05-05T06:30:56.646Z,26.20
2023-05-05T06:33:23.489Z,25.80
2023-05-05T06:35:52.341Z,26.00
2023-05-05T06:38:19.247Z,25.60
2023-05-05T06:40:48.978Z,24.30
2023-05-05T06:43:16.403Z,23.30
2023-05-05T06:45:44.036Z,22.60
2023-05-05T06:48:10.981Z,22.70
2023-05-05T06:50:37.777Z,23.50
2023-05-05T06:53:04.669Z,24.90
2023-05-05T06:55:31.740Z,26.00
2023-05-05T06:57:58.665Z,25.80
2023-05-05T07:00:25.795Z,25.50
2023-05-05T07:02:52.676Z,24.90
2023-05-05T07:05:19.826Z,23.80
2023-05-05T07:07:53.154Z,22.70
2023-05-05T07:10:21.561Z,22.60
2023-05-05T07:12:48.816Z,23.60
2023-05-05T07:15:26.881Z,25.00
2023-05-05T07:17:55.407Z,24.80
2023-05-05T07:20:22.293Z,24.60
2023-05-05T07:22:49.111Z,24.10
2023-05-05T07:25:16.330Z,23.50
2023-05-05T07:27:43.288Z,23.30
2023-05-05T07:30:14.045Z,23.60
2023-05-05T07:32:43.373Z,24.20
2023-05-05T07:35:10.987Z,24.50
2023-05-05T07:37:38.006Z,24.80
2023-05-05T07:40:05.396Z,25.00
2023-05-05T07:42:32.308Z,25.50
2023-05-05T07:44:59.119Z,26.10
2023-05-05T07:47:26.106Z,26.20
2023-05-05T07:49:52.952Z,25.90
2023-05-05T07:52:25.276Z,26.00
2023-05-05T07:55:00.289Z,26.40
2023-05-05T07:57:27.175Z,26.40
2023-05-05T07:59:54.012Z,26.10
2023-05-05T08:02:22.552Z,26.10
2023-05-05T08:04:49.689Z,25.80
2023-05-05T08:07:16.600Z,25.50
2023-05-05T08:09:43.463Z,25.10
2023-05-05T08:12:12.454Z,25.20
2023-05-05T08:14:41.111Z,25.70
2023-05-05T08:17:08.352Z,26.50
2023-05-05T08:19:35.318Z,26.60
2023-05-05T08:22:02.204Z,26.60
2023-05-05T08:24:29.074Z,26.80
2023-05-05T08:26:56.805Z,26.70
2023-05-05T08:29:23.857Z,27.10
2023-05-05T08:31:50.943Z,27.30
2023-05-05T08:34:17.836Z,27.20
2023-05-05T08:36:44.726Z,27.20
2023-05-05T08:39:11.748Z,27.50
2023-05-05T08:41:38.572Z,27.60
2023-05-05T08:44:05.480Z,27.70
2023-05-05T08:46:32.612Z,27.80
2023-05-05T08:49:01.945Z,27.60
2023-05-05T08:51:33.132Z,27.30
2023-05-05T08:54:04.085Z,26.50
2023-05-05T08:56:39.610Z,25.50
2023-05-05T08:59:06.862Z,24.60
2023-05-05T09:01:35.070Z,24.40
2023-05-05T09:04:04.074Z,24.50
2023-05-05T09:06:33.887Z,24.50
2023-05-05T09:09:01.682Z,25.60
2023-05-05T09:11:28.637Z,26.50
2023-05-05T09:13:56.139Z,26.60
2023-05-05T09:16:23.296Z,26.40
2023-05-05T09:18:50.160Z,25.50
2023-05-05T09:21:21.479Z,25.00
2023-05-05T09:24:11.001Z,24.60
2023-05-05T09:26:41.122Z,24.20
2023-05-05T09:29:08.201Z,23.90
2023-05-05T09:31:36.851Z,24.00
2023-05-05T09:34:15.132Z,24.00
2023-05-05T09:36:49.909Z,24.00
2023-05-05T09:39:20.433Z,23.80
2023-05-05T09:41:47.476Z,23.40
2023-05-05T09:44:17.490Z,23.20
2023-05-05T09:46:53.294Z,23.10
2023-05-05T09:49:26.951Z,23.10
2023-05-05T09:51:54.878Z,23.20
2023-05-05T09:54:29.917Z,23.40
2023-05-05T09:56:57.551Z,23.60
2023-05-05T09:59:24.904Z,23.50
2023-05-05T10:01:52.416Z,23.20
2023-05-05T10:04:29.179Z,23.10
2023-05-05T10:06:57.300Z,23.10
2023-05-05T10:09:27.471Z,23.30
2023-05-05T10:11:55.827Z,23.30
2023-05-05T10:14:25.375Z,23.30
2023-05-05T10:16:54.271Z,23.30
2023-05-05T10:19:23.812Z,23.20
2023-05-05T10:21:53.052Z,23.20
2023-05-05T10:24:47.268Z,23.10
2023-05-05T10:27:20.116Z,23.40
2023-05-05T10:30:06.312Z,23.10
2023-05-05T10:35:19.916Z,23.20
2023-05-05T10:37:47.800Z,23.00
2023-05-05T10:40:15.421Z,22.60
2023-05-05T10:42:42.989Z,22.50
2023-05-05T10:45:10.121Z,22.40
2023-05-05T10:47:38.348Z,22.30
2023-05-05T10:50:26.187Z,22.20
2023-05-05T10:53:22.075Z,22.00
2023-05-05T10:56:14.722Z,21.60
2023-05-05T10:58:56.051Z,21.30
2023-05-05T11:01:34.033Z,21.10
2023-05-05T11:04:19.628Z,20.80
2023-05-05T11:07:09.627Z,20.30
2023-05-05T11:10:03.548Z,19.50
2023-05-05T11:12:32.207Z,18.50
2023-05-05T11:15:24.069Z,17.70
2023-05-05T11:17:51.088Z,17.10
2023-05-05T11:20:18.066Z,16.90
2023-05-05T11:23:03.390Z,16.80
2023-05-05T11:25:40.665Z,16.90
2023-05-05T11:28:16.533Z,16.90
2023-05-05T11:31:04.268Z,16.90
2023-05-05T11:33:32.014Z,17.10
2023-05-05T11:36:01.859Z,17.50
2023-05-05T11:39:06.703Z,17.80
2023-05-05T11:41:43.228Z,18.20
2023-05-05T11:44:17.350Z,18.60
2023-05-05T11:46:53.214Z,19.00
2023-05-05T11:49:30.627Z,19.20
2023-05-05T11:51:58.576Z,19.40
2023-05-05T11:54:25.897Z,19.50
2023-05-05T11:56:57.650Z,19.50
2023-05-05T11:59:24.830Z,19.50
2023-05-05T12:01:51.890Z,19.40
2023-05-05T12:04:19.556Z,19.60
2023-05-05T12:06:46.934Z,19.70
2023-05-05T12:09:22.183Z,19.60
2023-05-05T12:11:52.679Z,19.70
2023-05-05T12:14:20.140Z,19.90
2023-05-05T12:17:04.484Z,20.10
2023-05-05T12:19:33.673Z,20.20
2023-05-05T12:22:04.706Z,20.20
2023-05-05T12:24:31.759Z,20.20
2023-05-05T12:27:08.969Z,20.30
2023-05-05T12:29:35.877Z,20.30
2023-05-05T12:32:03.458Z,20.50
2023-05-05T12:34:32.298Z,20.30
2023-05-05T12:36:59.349Z,20.40
2023-05-05T12:39:38.402Z,20.50
2023-05-05T12:42:06.509Z,20.70
2023-05-05T12:44:40.396Z,20.90
2023-05-05T12:47:07.929Z,21.00
2023-05-05T12:49:50.908Z,21.30
2023-05-05T12:52:18.612Z,21.40
2023-05-05T12:54:56.018Z,21.40
2023-05-05T12:57:23.476Z,21.50
2023-05-05T12:59:51.326Z,21.60
2023-05-05T13:02:18.670Z,22.10
2023-05-05T13:04:54.936Z,22.40
2023-05-05T13:07:22.379Z,22.50
2023-05-05T13:09:50.228Z,22.50
2023-05-05T13:12:21.715Z,22.40
2023-05-05T13:14:49.520Z,22.20
2023-05-05T13:17:16.396Z,22.10
2023-05-05T13:19:46.393Z,21.60
2023-05-05T13:22:13.967Z,21.30
2023-05-05T13:24:51.706Z,20.90
2023-05-05T13:27:20.188Z,20.60
2023-05-05T13:29:47.004Z,20.30
2023-05-05T13:32:13.962Z,19.90
2023-05-05T13:34:41.605Z,19.70
2023-05-05T13:37:08.833Z,19.50
2023-05-05T13:39:36.024Z,19.10
2023-05-05T13:42:03.086Z,18.50
2023-05-05T13:44:29.976Z,17.50
2023-05-05T13:46:56.943Z,16.90
2023-05-05T13:49:24.111Z,16.50
2023-05-05T13:51:50.927Z,16.40
2023-05-05T13:54:20.570Z,16.30
2023-05-05T13:56:47.456Z,16.20
2023-05-05T13:59:14.338Z,16.20
2023-05-05T14:01:41.329Z,16.10
2023-05-05T14:04:08.475Z,16.10
2023-05-05T14:06:36.255Z,16.10
2023-05-05T14:09:06.096Z,16.20
2023-05-05T14:11:33.648Z,16.30
2023-05-05T14:14:01.086Z,16.70
2023-05-05T14:16:28.020Z,17.00
2023-05-05T14:18:54.872Z,16.90
2023-05-05T14:21:21.705Z,17.10
2023-05-05T14:23:48.656Z,17.00
2023-05-05T14:26:15.509Z,17.20
2023-05-05T14:28:43.597Z,17.10
2023-05-05T14:31:11.355Z,17.00
2023-05-05T14:33:38.193Z,17.20
2023-05-05T14:36:05.448Z,17.40
2023-05-05T14:38:32.393Z,17.50
2023-05-05T14:40:59.634Z,17.50
2023-05-05T14:43:26.466Z,17.50
2023-05-05T14:45:53.404Z,17.20
2023-05-05T14:48:22.576Z,17.00
2023-05-05T14:50:50.129Z,16.70
2023-05-05T14:53:19.138Z,16.50
2023-05-05T14:55:46.061Z,16.50
2023-05-05T14:58:12.930Z,16.50
2023-05-05T15:00:39.803Z,16.40
2023-05-05T15:03:06.975Z,16.30
2023-05-05T15:05:34.311Z,16.10
2023-05-05T15:08:01.231Z,15.80
2023-05-05T15:10:28.086Z,15.60
2023-05-05T15:12:54.970Z,15.40
2023-05-05T15:15:21.906Z,15.30
2023-05-05T15:17:48.792Z,15.20
2023-05-05T15:20:15.631Z,15.10
2023-05-05T15:22:42.445Z,14.90
2023-05-05T15:25:12.584Z,14.80
2023-05-05T15:27:40.068Z,14.70
2023-05-05T15:30:07.653Z,14.70
2023-05-05T15:32:34.706Z,14.60
2023-05-05T15:35:01.582Z,14.50
2023-05-05T15:37:29.113Z,14.40
2023-05-05T15:39:56.543Z,14.40
2023-05-05T15:42:23.575Z,14.30
2023-05-05T15:44:50.801Z,14.30
2023-05-05T15:47:17.953Z,14.30
2023-05-05T15:49:44.848Z,14.30
2023-05-05T15:52:12.921Z,14.20
2023-05-05T15:54:39.872Z,14.20
2023-05-05T15:57:06.854Z,14.30
2023-05-05T15:59:33.669Z,14.40
2023-05-05T16:02:00.566Z,14.40
2023-05-05T16:04:27.370Z,14.50
2023-05-05T16:06:55.473Z,14.60
2023-05-05T16:09:22.303Z,14.70
2023-05-05T16:11:49.222Z,14.70
2023-05-05T16:14:16.135Z,14.70
2023-05-05T16:16:43.010Z,14.70
2023-05-05T16:19:09.844Z,14.70
2023-05-05T16:21:36.713Z,14.60
2023-05-05T16:24:03.648Z,14.50
2023-05-05T16:26:30.482Z,14.50
2023-05-05T16:28:57.384Z,14.30
2023-05-05T16:31:24.271Z,14.30
2023-05-05T16:33:51.129Z,14.30
2023-05-05T16:36:18.050Z,14.30
2023-05-05T16:38:44.953Z,14.30
2023-05-05T16:41:11.929Z,14.30
2023-05-05T16:43:38.881Z,14.30
2023-05-05T16:46:06.754Z,14.30
2023-05-05T16:48:33.712Z,14.30
2023-05-05T16:51:00.618Z,14.30
2023-05-05T16:53:27.494Z,14.30
2023-05-05T16:55:54.354Z,14.20
2023-05-05T16:58:23.051Z,14.10
2023-05-05T17:00:51.011Z,14.10
2023-05-05T17:03:18.805Z,14.40
2023-05-05T17:05:49.666Z,14.40
2023-05-05T17:08:17.034Z,14.40
2023-05-05T17:10:44.981Z,14.50
2023-05-05T17:13:13.294Z,14.60
2023-05-05T17:15:41.091Z,14.60
2023-05-05T17:18:08.858Z,14.70
2023-05-05T17:20:36.492Z,14.70
2023-05-05T17:23:03.452Z,14.70
2023-05-05T17:25:30.497Z,14.90
2023-05-05T17:27:57.664Z,14.80
2023-05-05T17:30:24.619Z,14.90
2023-05-05T17:32:51.495Z,14.90
2023-05-05T17:35:18.582Z,14.80
2023-05-05T17:37:45.754Z,14.80
2023-05-05T17:40:12.763Z,14.80
2023-05-05T17:42:39.713Z,14.80
2023-05-05T17:45:08.097Z,14.70
2023-05-05T17:47:35.479Z,14.60
2023-05-05T17:50:02.576Z,14.60
2023-05-05T17:52:29.689Z,14.60
2023-05-05T17:54:56.667Z,14.60
2023-05-05T17:57:23.533Z,14.50
2023-05-05T17:59:52.006Z,14.50
2023-05-05T18:02:19.393Z,14.50
2023-05-05T18:04:46.637Z,14.60
2023-05-05T18:07:14.840Z,14.70
2023-05-05T18:09:41.875Z,14.70
2023-05-05T18:12:08.813Z,14.60
2023-05-05T18:14:35.906Z,14.50
2023-05-05T18:17:02.843Z,14.50
2023-05-05T18:19:29.921Z,14.40
2023-05-05T18:21:57.648Z,14.50
2023-05-05T18:24:24.804Z,14.50
2023-05-05T18:26:52.454Z,14.60
2023-05-05T18:29:20.322Z,14.50
2023-05-05T18:31:52.092Z,14.30
2023-05-05T18:34:21.463Z,14.30
2023-05-05T18:36:50.477Z,14.20
2023-05-05T18:39:17.994Z,14.20
2023-05-05T18:41:44.965Z,14.20
2023-05-05T18:44:12.111Z,14.20
2023-05-05T18:46:39.039Z,14.10
2023-05-05T18:49:06.250Z,14.00
2023-05-05T18:51:33.153Z,13.90
2023-05-05T18:54:01.064Z,13.90
2023-05-05T18:56:28.226Z,13.80
2023-05-05T18:58:55.100Z,13.70
2023-05-05T19:01:22.321Z,13.60
2023-05-05T19:03:49.950Z,13.50
2023-05-05T19:06:17.626Z,13.40
2023-05-05T19:08:45.759Z,13.40
2023-05-05T19:11:14.854Z,13.30
2023-05-05T19:13:41.987Z,13.30
2023-05-05T19:16:09.070Z,13.30
2023-05-05T19:18:35.902Z,13.20
2023-05-05T19:21:02.789Z,13.20
2023-05-05T19:23:29.640Z,13.10
2023-05-05T19:25:56.571Z,13.10
2023-05-05T19:28:23.655Z,13.00
2023-05-05T19:30:52.097Z,13.00
2023-05-05T19:33:18.972Z,12.90
2023-05-05T19:35:45.956Z,12.90
2023-05-05T19:38:13.029Z,12.90
2023-05-05T19:40:40.138Z,12.80
2023-05-05T19:43:07.496Z,12.80
2023-05-05T19:45:34.416Z,12.70
2023-05-05T19:48:01.848Z,12.70
2023-05-05T19:50:30.475Z,12.60
2023-05-05T19:52:57.902Z,12.50
2023-05-05T19:55:25.011Z,12.50
2023-05-05T19:57:51.966Z,12.50
2023-05-05T20:00:19.857Z,12.50
2023-05-05T20:02:48.735Z,12.40
2023-05-05T20:05:17.571Z,12.40
2023-05-05T20:07:46.497Z,12.40
2023-05-05T20:10:13.740Z,12.40
2023-05-05T20:12:47.914Z,12.40
2023-05-05T20:15:19.330Z,12.40
2023-05-05T20:17:47.562Z,12.40
2023-05-05T20:20:20.584Z,12.50
2023-05-05T20:22:48.250Z,12.50
2023-05-05T20:25:16.442Z,12.40
2023-05-05T20:27:43.742Z,12.30
2023-05-05T20:30:11.834Z,12.30
2023-05-05T20:32:39.140Z,12.30
2023-05-05T20:35:06.478Z,12.30
2023-05-05T20:37:33.506Z,12.30
2023-05-05T20:40:00.454Z,12.20
2023-05-05T20:42:27.992Z,12.20
2023-05-05T20:44:55.030Z,12.20
2023-05-05T20:47:22.031Z,12.20
2023-05-05T20:49:48.874Z,12.20
2023-05-05T20:52:15.795Z,12.10
2023-05-05T20:54:42.676Z,12.10
2023-05-05T20:57:09.527Z,12.10
2023-05-05T20:59:36.364Z,12.10
2023-05-05T21:02:03.279Z,12.10
2023-05-05T21:04:30.215Z,12.10
2023-05-05T21:06:57.491Z,12.00
2023-05-05T21:09:24.446Z,12.00
2023-05-05T21:11:51.353Z,12.10
2023-05-05T21:14:18.197Z,12.10
2023-05-05T21:16:45.143Z,12.00
2023-05-05T21:19:12.023Z,12.00
2023-05-05T21:21:38.837Z,12.00
2023-05-05T21:24:08.086Z,12.10
2023-05-05T21:26:35.097Z,12.10
2023-05-05T21:29:01.945Z,12.10
2023-05-05T21:31:28.866Z,12.10
2023-05-05T21:33:55.818Z,12.10
2023-05-05T21:36:22.760Z,12.10
2023-05-05T21:38:49.822Z,12.10
2023-05-05T21:41:16.996Z,12.00
2023-05-05T21:43:43.886Z,11.90
2023-05-05T21:46:10.971Z,11.90
2023-05-05T21:48:39.121Z,12.00
2023-05-05T21:51:06.852Z,12.00
2023-05-05T21:53:33.843Z,11.90
2023-05-05T21:56:01.132Z,11.90
2023-05-05T21:58:28.003Z,11.90
2023-05-05T22:00:55.063Z,11.90
2023-05-05T22:03:22.067Z,11.90
2023-05-05T22:05:49.046Z,11.90
2023-05-05T22:08:15.857Z,11.90
2023-05-05T22:10:42.806Z,11.80
2023-05-05T22:13:10.779Z,11.80
2023-05-05T22:15:45.864Z,11.70
2023-05-05T22:18:13.910Z,11.70
2023-05-05T22:20:40.909Z,11.70
2023-05-05T22:23:07.753Z,11.70
2023-05-05T22:25:34.644Z,11.70
2023-05-05T22:28:01.557Z,11.70
2023-05-05T22:30:28.416Z,11.70
2023-05-05T22:32:55.348Z,11.70
2023-05-05T22:35:22.349Z,11.60
2023-05-05T22:37:49.208Z,11.70
2023-05-05T22:40:16.211Z,11.60
2023-05-05T22:42:43.165Z,11.70
2023-05-05T22:45:10.728Z,11.60
2023-05-05T22:47:37.790Z,11.70
2023-05-05T22:50:04.989Z,11.70
2023-05-05T22:52:32.132Z,11.70
2023-05-05T22:54:59.046Z,11.70
2023-05-05T22:57:25.960Z,11.70
2023-05-05T22:59:52.874Z,11.70
2023-05-05T23:02:19.790Z,11.70
2023-05-05T23:04:46.799Z,11.80
2023-05-05T23:07:13.728Z,12.00
2023-05-05T23:09:41.135Z,12.00
2023-05-05T23:12:08.027Z,11.90
2023-05-05T23:14:35.699Z,11.90
2023-05-05T23:17:02.735Z,11.90
2023-05-05T23:19:32.219Z,11.90
2023-05-05T23:21:59.862Z,11.80
2023-05-05T23:24:27.547Z,11.80
2023-05-05T23:26:54.990Z,11.80
2023-05-05T23:29:21.890Z,11.80
2023-05-05T23:31:49.000Z,11.80
2023-05-05T23:34:15.876Z,11.70
2023-05-05T23:36:43.000Z,11.70
2023-05-05T23:39:09.892Z,11.70
2023-05-05T23:41:36.760Z,11.60
2023-05-05T23:44:03.627Z,11.60
2023-05-05T23:46:30.698Z,11.50
2023-05-05T23:48:57.621Z,11.50
2023-05-05T23:51:24.513Z,11.50
2023-05-05T23:53:51.634Z,11.50
2023-05-05T23:56:18.557Z,11.50
2023-05-05T23:58:45.378Z,11.50
